sensor_id;sensor_type;location;lat;lon;timestamp;P1;durP1;ratioP1;P2;durP2;ratioP2
46084;SDS011;31823;47.032;8.310;2022-10-23T00:00:52;6.53;;;2.38;;
46084;SDS011;31823;47.032;8.310;2022-10-23T00:03:18;6.32;;;1.58;;
46084;SDS011;31823;47.032;8.310;2022-10-23T00:05:44;6.30;;;1.75;;
46084;SDS011;31823;47.032;8.310;2022-10-23T00:08:11;5.00;;;1.40;;
46084;SDS011;31823;47.032;8.310;2022-10-23T00:10:39;8.13;;;1.70;;
46084;SDS011;31823;47.032;8.310;2022-10-23T00:13:06;8.48;;;1.40;;
46084;SDS011;31823;47.032;8.310;2022-10-23T00:15:33;3.35;;;1.80;;
46084;SDS011;31823;47.032;8.310;2022-10-23T00:17:59;6.32;;;1.80;;
46084;SDS011;31823;47.032;8.310;2022-10-23T00:20:25;2.78;;;1.42;;
46084;SDS011;31823;47.032;8.310;2022-10-23T00:22:51;11.05;;;1.70;;
46084;SDS011;31823;47.032;8.310;2022-10-23T00:25:17;6.10;;;1.70;;
46084;SDS011;31823;47.032;8.310;2022-10-23T00:27:43;3.97;;;1.52;;
46084;SDS011;31823;47.032;8.310;2022-10-23T00:30:08;13.95;;;1.98;;
46084;SDS011;31823;47.032;8.310;2022-10-23T00:32:35;5.13;;;1.55;;
46084;SDS011;31823;47.032;8.310;2022-10-23T00:35:00;7.25;;;1.70;;
46084;SDS011;31823;47.032;8.310;2022-10-23T00:37:26;7.85;;;2.13;;
46084;SDS011;31823;47.032;8.310;2022-10-23T00:39:52;4.60;;;1.95;;
46084;SDS011;31823;47.032;8.310;2022-10-23T00:42:18;2.55;;;1.85;;
46084;SDS011;31823;47.032;8.310;2022-10-23T00:47:11;5.85;;;2.72;;
46084;SDS011;31823;47.032;8.310;2022-10-23T00:49:38;7.82;;;3.20;;
46084;SDS011;31823;47.032;8.310;2022-10-23T00:52:05;7.15;;;2.47;;
46084;SDS011;31823;47.032;8.310;2022-10-23T00:54:37;7.20;;;2.33;;
46084;SDS011;31823;47.032;8.310;2022-10-23T00:57:10;3.45;;;2.40;;
46084;SDS011;31823;47.032;8.310;2022-10-23T00:59:38;6.35;;;2.20;;
46084;SDS011;31823;47.032;8.310;2022-10-23T01:02:04;4.75;;;2.00;;
46084;SDS011;31823;47.032;8.310;2022-10-23T01:04:30;6.88;;;1.73;;
46084;SDS011;31823;47.032;8.310;2022-10-23T01:17:53;4.95;;;1.50;;
46084;SDS011;31823;47.032;8.310;2022-10-23T01:20:42;2.25;;;1.70;;
46084;SDS011;31823;47.032;8.310;2022-10-23T01:23:15;10.75;;;1.90;;
46084;SDS011;31823;47.032;8.310;2022-10-23T01:26:11;4.10;;;1.73;;
46084;SDS011;31823;47.032;8.310;2022-10-23T01:28:43;8.82;;;2.80;;
46084;SDS011;31823;47.032;8.310;2022-10-23T01:31:17;6.22;;;2.55;;
46084;SDS011;31823;47.032;8.310;2022-10-23T01:33:54;10.38;;;2.15;;
46084;SDS011;31823;47.032;8.310;2022-10-23T01:36:25;6.60;;;2.65;;
46084;SDS011;31823;47.032;8.310;2022-10-23T01:39:14;7.50;;;2.72;;
46084;SDS011;31823;47.032;8.310;2022-10-23T01:41:53;6.72;;;2.53;;
46084;SDS011;31823;47.032;8.310;2022-10-23T01:46:53;5.57;;;2.10;;
46084;SDS011;31823;47.032;8.310;2022-10-23T01:49:21;8.32;;;3.03;;
46084;SDS011;31823;47.032;8.310;2022-10-23T01:51:55;10.80;;;2.30;;
46084;SDS011;31823;47.032;8.310;2022-10-23T01:54:24;9.47;;;2.60;;
46084;SDS011;31823;47.032;8.310;2022-10-23T01:56:54;3.85;;;1.58;;
46084;SDS011;31823;47.032;8.310;2022-10-23T01:59:23;5.80;;;2.10;;
46084;SDS011;31823;47.032;8.310;2022-10-23T02:01:54;22.67;;;2.78;;
46084;SDS011;31823;47.032;8.310;2022-10-23T02:04:22;7.55;;;2.15;;
46084;SDS011;31823;47.032;8.310;2022-10-23T02:06:53;5.55;;;1.88;;
46084;SDS011;31823;47.032;8.310;2022-10-23T02:09:19;7.07;;;2.17;;
46084;SDS011;31823;47.032;8.310;2022-10-23T02:11:51;20.58;;;2.40;;
46084;SDS011;31823;47.032;8.310;2022-10-23T02:14:25;9.02;;;2.25;;
46084;SDS011;31823;47.032;8.310;2022-10-23T02:17:14;10.20;;;1.77;;
46084;SDS011;31823;47.032;8.310;2022-10-23T02:25:29;5.28;;;1.70;;
46084;SDS011;31823;47.032;8.310;2022-10-23T02:28:00;7.18;;;1.80;;
46084;SDS011;31823;47.032;8.310;2022-10-23T02:30:30;4.22;;;1.48;;
46084;SDS011;31823;47.032;8.310;2022-10-23T02:32:59;6.47;;;1.65;;
46084;SDS011;31823;47.032;8.310;2022-10-23T02:35:26;2.38;;;1.60;;
46084;SDS011;31823;47.032;8.310;2022-10-23T02:37:56;4.85;;;2.42;;
46084;SDS011;31823;47.032;8.310;2022-10-23T02:40:24;5.43;;;1.58;;
46084;SDS011;31823;47.032;8.310;2022-10-23T02:45:40;6.28;;;2.15;;
46084;SDS011;31823;47.032;8.310;2022-10-23T02:48:18;20.20;;;2.90;;
46084;SDS011;31823;47.032;8.310;2022-10-23T02:56:35;7.18;;;2.20;;
46084;SDS011;31823;47.032;8.310;2022-10-23T02:59:21;13.75;;;2.10;;
46084;SDS011;31823;47.032;8.310;2022-10-23T03:02:42;4.40;;;1.98;;
46084;SDS011;31823;47.032;8.310;2022-10-23T03:04:51;9.10;;;2.83;;
46084;SDS011;31823;47.032;8.310;2022-10-23T03:07:18;12.77;;;2.50;;
46084;SDS011;31823;47.032;8.310;2022-10-23T03:09:44;3.90;;;2.60;;
46084;SDS011;31823;47.032;8.310;2022-10-23T03:12:10;9.50;;;2.50;;
46084;SDS011;31823;47.032;8.310;2022-10-23T03:14:35;10.27;;;3.13;;
46084;SDS011;31823;47.032;8.310;2022-10-23T03:17:01;9.07;;;4.20;;
46084;SDS011;31823;47.032;8.310;2022-10-23T03:19:28;5.85;;;3.47;;
46084;SDS011;31823;47.032;8.310;2022-10-23T03:21:53;7.40;;;2.90;;
46084;SDS011;31823;47.032;8.310;2022-10-23T03:24:19;5.25;;;2.38;;
46084;SDS011;31823;47.032;8.310;2022-10-23T03:26:44;8.15;;;3.28;;
46084;SDS011;31823;47.032;8.310;2022-10-23T03:29:10;12.10;;;4.60;;
46084;SDS011;31823;47.032;8.310;2022-10-23T03:31:36;15.77;;;6.28;;
46084;SDS011;31823;47.032;8.310;2022-10-23T03:34:01;12.27;;;4.40;;
46084;SDS011;31823;47.032;8.310;2022-10-23T03:36:27;8.32;;;4.32;;
46084;SDS011;31823;47.032;8.310;2022-10-23T03:38:53;16.00;;;4.10;;
46084;SDS011;31823;47.032;8.310;2022-10-23T03:41:18;5.47;;;2.88;;
46084;SDS011;31823;47.032;8.310;2022-10-23T03:43:44;6.20;;;2.92;;
46084;SDS011;31823;47.032;8.310;2022-10-23T03:46:09;3.85;;;2.63;;
46084;SDS011;31823;47.032;8.310;2022-10-23T03:48:37;7.20;;;3.10;;
46084;SDS011;31823;47.032;8.310;2022-10-23T03:51:05;3.47;;;2.90;;
46084;SDS011;31823;47.032;8.310;2022-10-23T03:53:31;5.65;;;2.78;;
46084;SDS011;31823;47.032;8.310;2022-10-23T03:55:57;5.95;;;3.33;;
46084;SDS011;31823;47.032;8.310;2022-10-23T03:58:23;7.20;;;2.72;;
46084;SDS011;31823;47.032;8.310;2022-10-23T04:00:48;13.55;;;2.58;;
46084;SDS011;31823;47.032;8.310;2022-10-23T04:03:14;5.88;;;2.60;;
46084;SDS011;31823;47.032;8.310;2022-10-23T04:05:40;6.53;;;2.50;;
46084;SDS011;31823;47.032;8.310;2022-10-23T04:08:07;7.72;;;3.33;;
46084;SDS011;31823;47.032;8.310;2022-10-23T04:10:33;18.60;;;2.70;;
46084;SDS011;31823;47.032;8.310;2022-10-23T04:12:58;6.82;;;2.50;;
46084;SDS011;31823;47.032;8.310;2022-10-23T04:15:24;5.90;;;2.42;;
46084;SDS011;31823;47.032;8.310;2022-10-23T04:17:49;10.40;;;2.63;;
46084;SDS011;31823;47.032;8.310;2022-10-23T04:20:15;6.07;;;2.35;;
46084;SDS011;31823;47.032;8.310;2022-10-23T04:22:41;6.25;;;3.03;;
46084;SDS011;31823;47.032;8.310;2022-10-23T04:25:07;11.07;;;2.80;;
46084;SDS011;31823;47.032;8.310;2022-10-23T04:27:33;5.03;;;2.20;;
46084;SDS011;31823;47.032;8.310;2022-10-23T04:29:59;3.92;;;2.20;;
46084;SDS011;31823;47.032;8.310;2022-10-23T04:32:25;3.17;;;2.25;;
46084;SDS011;31823;47.032;8.310;2022-10-23T04:34:51;6.38;;;2.33;;
46084;SDS011;31823;47.032;8.310;2022-10-23T04:37:16;6.30;;;2.38;;
46084;SDS011;31823;47.032;8.310;2022-10-23T04:39:42;5.80;;;2.72;;
46084;SDS011;31823;47.032;8.310;2022-10-23T04:42:07;10.85;;;2.33;;
46084;SDS011;31823;47.032;8.310;2022-10-23T04:44:33;7.68;;;2.30;;
46084;SDS011;31823;47.032;8.310;2022-10-23T04:46:59;8.25;;;2.55;;
46084;SDS011;31823;47.032;8.310;2022-10-23T04:49:24;3.30;;;2.20;;
46084;SDS011;31823;47.032;8.310;2022-10-23T04:51:50;4.10;;;2.33;;
46084;SDS011;31823;47.032;8.310;2022-10-23T04:54:16;2.47;;;2.28;;
46084;SDS011;31823;47.032;8.310;2022-10-23T04:56:41;6.07;;;2.30;;
46084;SDS011;31823;47.032;8.310;2022-10-23T04:59:07;8.70;;;2.42;;
46084;SDS011;31823;47.032;8.310;2022-10-23T05:01:33;12.57;;;2.72;;
46084;SDS011;31823;47.032;8.310;2022-10-23T05:03:59;4.25;;;2.70;;
46084;SDS011;31823;47.032;8.310;2022-10-23T05:06:25;5.10;;;2.72;;
46084;SDS011;31823;47.032;8.310;2022-10-23T05:08:50;4.45;;;2.10;;
46084;SDS011;31823;47.032;8.310;2022-10-23T05:11:16;6.05;;;2.38;;
46084;SDS011;31823;47.032;8.310;2022-10-23T05:13:42;9.57;;;2.00;;
46084;SDS011;31823;47.032;8.310;2022-10-23T05:16:07;4.10;;;2.65;;
46084;SDS011;31823;47.032;8.310;2022-10-23T05:18:34;4.60;;;1.98;;
46084;SDS011;31823;47.032;8.310;2022-10-23T05:21:05;4.60;;;2.20;;
46084;SDS011;31823;47.032;8.310;2022-10-23T05:23:45;2.78;;;1.70;;
46084;SDS011;31823;47.032;8.310;2022-10-23T05:26:11;10.50;;;2.47;;
46084;SDS011;31823;47.032;8.310;2022-10-23T05:28:36;8.70;;;3.00;;
46084;SDS011;31823;47.032;8.310;2022-10-23T05:31:03;7.22;;;2.80;;
46084;SDS011;31823;47.032;8.310;2022-10-23T05:33:30;5.75;;;1.60;;
46084;SDS011;31823;47.032;8.310;2022-10-23T05:35:56;8.98;;;1.77;;
46084;SDS011;31823;47.032;8.310;2022-10-23T05:38:23;2.75;;;1.70;;
46084;SDS011;31823;47.032;8.310;2022-10-23T05:40:51;13.25;;;2.55;;
46084;SDS011;31823;47.032;8.310;2022-10-23T05:43:17;4.00;;;2.10;;
46084;SDS011;31823;47.032;8.310;2022-10-23T05:45:43;6.05;;;2.20;;
46084;SDS011;31823;47.032;8.310;2022-10-23T05:48:08;5.60;;;2.50;;
46084;SDS011;31823;47.032;8.310;2022-10-23T05:50:35;7.18;;;2.40;;
46084;SDS011;31823;47.032;8.310;2022-10-23T05:53:01;13.32;;;2.58;;
46084;SDS011;31823;47.032;8.310;2022-10-23T05:55:27;12.68;;;2.17;;
46084;SDS011;31823;47.032;8.310;2022-10-23T05:57:52;4.88;;;2.80;;
46084;SDS011;31823;47.032;8.310;2022-10-23T06:00:18;10.05;;;2.53;;
46084;SDS011;31823;47.032;8.310;2022-10-23T06:02:44;11.50;;;2.70;;
46084;SDS011;31823;47.032;8.310;2022-10-23T06:05:09;6.32;;;2.03;;
46084;SDS011;31823;47.032;8.310;2022-10-23T06:07:35;5.72;;;2.20;;
46084;SDS011;31823;47.032;8.310;2022-10-23T06:10:01;9.80;;;2.47;;
46084;SDS011;31823;47.032;8.310;2022-10-23T06:12:28;3.45;;;1.50;;
46084;SDS011;31823;47.032;8.310;2022-10-23T06:14:55;6.40;;;2.20;;
46084;SDS011;31823;47.032;8.310;2022-10-23T06:17:20;3.38;;;1.80;;
46084;SDS011;31823;47.032;8.310;2022-10-23T06:19:46;9.10;;;2.20;;
46084;SDS011;31823;47.032;8.310;2022-10-23T06:22:12;13.20;;;2.67;;
46084;SDS011;31823;47.032;8.310;2022-10-23T06:24:37;8.15;;;2.00;;
46084;SDS011;31823;47.032;8.310;2022-10-23T06:27:03;6.75;;;2.22;;
46084;SDS011;31823;47.032;8.310;2022-10-23T06:29:29;6.68;;;2.03;;
46084;SDS011;31823;47.032;8.310;2022-10-23T06:31:55;12.40;;;2.13;;
46084;SDS011;31823;47.032;8.310;2022-10-23T06:34:20;10.30;;;2.95;;
46084;SDS011;31823;47.032;8.310;2022-10-23T06:36:46;6.55;;;2.38;;
46084;SDS011;31823;47.032;8.310;2022-10-23T06:39:11;3.78;;;3.35;;
46084;SDS011;31823;47.032;8.310;2022-10-23T06:41:37;6.07;;;2.67;;
46084;SDS011;31823;47.032;8.310;2022-10-23T06:44:06;8.48;;;2.53;;
46084;SDS011;31823;47.032;8.310;2022-10-23T06:46:34;4.38;;;2.17;;
46084;SDS011;31823;47.032;8.310;2022-10-23T06:49:00;9.55;;;2.25;;
46084;SDS011;31823;47.032;8.310;2022-10-23T06:51:26;12.50;;;2.78;;
46084;SDS011;31823;47.032;8.310;2022-10-23T06:53:53;3.00;;;1.52;;
46084;SDS011;31823;47.032;8.310;2022-10-23T06:56:19;5.63;;;1.92;;
46084;SDS011;31823;47.032;8.310;2022-10-23T06:58:46;10.85;;;2.22;;
46084;SDS011;31823;47.032;8.310;2022-10-23T07:01:11;6.95;;;2.00;;
46084;SDS011;31823;47.032;8.310;2022-10-23T07:03:38;5.00;;;2.15;;
46084;SDS011;31823;47.032;8.310;2022-10-23T07:06:04;12.10;;;2.25;;
46084;SDS011;31823;47.032;8.310;2022-10-23T07:08:31;9.45;;;2.50;;
46084;SDS011;31823;47.032;8.310;2022-10-23T07:11:01;5.63;;;2.58;;
46084;SDS011;31823;47.032;8.310;2022-10-23T07:13:27;6.78;;;4.32;;
46084;SDS011;31823;47.032;8.310;2022-10-23T07:15:53;8.85;;;3.30;;
46084;SDS011;31823;47.032;8.310;2022-10-23T07:18:19;8.68;;;3.17;;
46084;SDS011;31823;47.032;8.310;2022-10-23T07:20:44;6.93;;;2.40;;
46084;SDS011;31823;47.032;8.310;2022-10-23T07:23:13;4.75;;;2.25;;
46084;SDS011;31823;47.032;8.310;2022-10-23T07:25:40;4.88;;;2.67;;
46084;SDS011;31823;47.032;8.310;2022-10-23T07:28:06;5.80;;;3.83;;
46084;SDS011;31823;47.032;8.310;2022-10-23T07:30:32;11.90;;;3.72;;
46084;SDS011;31823;47.032;8.310;2022-10-23T07:32:57;11.70;;;2.33;;
46084;SDS011;31823;47.032;8.310;2022-10-23T07:35:23;5.25;;;3.75;;
46084;SDS011;31823;47.032;8.310;2022-10-23T07:37:49;4.30;;;3.25;;
46084;SDS011;31823;47.032;8.310;2022-10-23T07:40:15;3.75;;;3.00;;
46084;SDS011;31823;47.032;8.310;2022-10-23T07:42:42;3.95;;;3.25;;
46084;SDS011;31823;47.032;8.310;2022-10-23T07:45:08;7.38;;;2.90;;
46084;SDS011;31823;47.032;8.310;2022-10-23T07:47:35;5.90;;;3.10;;
46084;SDS011;31823;47.032;8.310;2022-10-23T07:50:01;18.48;;;4.10;;
46084;SDS011;31823;47.032;8.310;2022-10-23T07:52:26;5.90;;;3.15;;
46084;SDS011;31823;47.032;8.310;2022-10-23T07:54:52;16.95;;;3.55;;
46084;SDS011;31823;47.032;8.310;2022-10-23T07:57:18;5.57;;;3.17;;
46084;SDS011;31823;47.032;8.310;2022-10-23T07:59:44;10.32;;;4.78;;
46084;SDS011;31823;47.032;8.310;2022-10-23T08:02:11;6.18;;;3.70;;
46084;SDS011;31823;47.032;8.310;2022-10-23T08:04:38;12.40;;;3.47;;
46084;SDS011;31823;47.032;8.310;2022-10-23T08:07:04;7.78;;;3.67;;
46084;SDS011;31823;47.032;8.310;2022-10-23T08:09:30;11.35;;;3.50;;
46084;SDS011;31823;47.032;8.310;2022-10-23T08:11:56;7.38;;;3.40;;
46084;SDS011;31823;47.032;8.310;2022-10-23T08:14:21;12.68;;;3.22;;
46084;SDS011;31823;47.032;8.310;2022-10-23T08:16:47;5.28;;;2.97;;
46084;SDS011;31823;47.032;8.310;2022-10-23T08:19:13;10.32;;;3.13;;
46084;SDS011;31823;47.032;8.310;2022-10-23T08:21:38;5.18;;;3.88;;
46084;SDS011;31823;47.032;8.310;2022-10-23T08:24:04;8.77;;;3.63;;
46084;SDS011;31823;47.032;8.310;2022-10-23T08:26:30;6.10;;;3.47;;
46084;SDS011;31823;47.032;8.310;2022-10-23T08:28:59;4.68;;;2.45;;
46084;SDS011;31823;47.032;8.310;2022-10-23T08:31:25;15.82;;;3.55;;
46084;SDS011;31823;47.032;8.310;2022-10-23T08:33:51;19.02;;;3.40;;
46084;SDS011;31823;47.032;8.310;2022-10-23T08:36:26;8.02;;;3.10;;
46084;SDS011;31823;47.032;8.310;2022-10-23T08:38:53;3.53;;;2.65;;
46084;SDS011;31823;47.032;8.310;2022-10-23T08:43:51;8.60;;;2.67;;
46084;SDS011;31823;47.032;8.310;2022-10-23T08:46:27;2.70;;;2.40;;
46084;SDS011;31823;47.032;8.310;2022-10-23T08:49:09;8.15;;;2.60;;
46084;SDS011;31823;47.032;8.310;2022-10-23T08:51:47;4.78;;;3.03;;
46084;SDS011;31823;47.032;8.310;2022-10-23T08:54:20;4.82;;;3.30;;
46084;SDS011;31823;47.032;8.310;2022-10-23T08:56:48;3.95;;;3.15;;
46084;SDS011;31823;47.032;8.310;2022-10-23T08:59:29;6.43;;;3.25;;
46084;SDS011;31823;47.032;8.310;2022-10-23T09:04:32;5.57;;;3.58;;
46084;SDS011;31823;47.032;8.310;2022-10-23T09:09:33;9.98;;;3.92;;
46084;SDS011;31823;47.032;8.310;2022-10-23T09:12:21;6.97;;;3.40;;
46084;SDS011;31823;47.032;8.310;2022-10-23T09:17:39;6.60;;;3.80;;
46084;SDS011;31823;47.032;8.310;2022-10-23T09:20:20;4.93;;;3.17;;
46084;SDS011;31823;47.032;8.310;2022-10-23T09:22:51;7.43;;;3.78;;
46084;SDS011;31823;47.032;8.310;2022-10-23T09:25:27;9.07;;;4.13;;
46084;SDS011;31823;47.032;8.310;2022-10-23T09:27:55;7.43;;;3.50;;
46084;SDS011;31823;47.032;8.310;2022-10-23T09:30:33;9.02;;;3.90;;
46084;SDS011;31823;47.032;8.310;2022-10-23T09:40:50;4.60;;;3.75;;
46084;SDS011;31823;47.032;8.310;2022-10-23T09:43:17;7.10;;;4.32;;
46084;SDS011;31823;47.032;8.310;2022-10-23T09:45:55;4.82;;;3.70;;
46084;SDS011;31823;47.032;8.310;2022-10-23T09:48:22;11.02;;;3.22;;
46084;SDS011;31823;47.032;8.310;2022-10-23T09:56:03;4.30;;;3.03;;
46084;SDS011;31823;47.032;8.310;2022-10-23T09:58:54;4.00;;;3.00;;
46084;SDS011;31823;47.032;8.310;2022-10-23T10:01:30;8.65;;;3.25;;
46084;SDS011;31823;47.032;8.310;2022-10-23T10:04:09;5.25;;;3.10;;
46084;SDS011;31823;47.032;8.310;2022-10-23T10:06:34;6.55;;;3.75;;
46084;SDS011;31823;47.032;8.310;2022-10-23T10:09:09;11.45;;;4.03;;
46084;SDS011;31823;47.032;8.310;2022-10-23T10:11:48;7.72;;;4.00;;
46084;SDS011;31823;47.032;8.310;2022-10-23T10:17:19;8.75;;;4.32;;
46084;SDS011;31823;47.032;8.310;2022-10-23T10:30:23;8.57;;;3.38;;
46084;SDS011;31823;47.032;8.310;2022-10-23T10:33:08;4.72;;;3.50;;
46084;SDS011;31823;47.032;8.310;2022-10-23T10:35:44;5.22;;;3.53;;
46084;SDS011;31823;47.032;8.310;2022-10-23T10:45:56;4.88;;;4.00;;
46084;SDS011;31823;47.032;8.310;2022-10-23T10:51:01;6.18;;;4.70;;
46084;SDS011;31823;47.032;8.310;2022-10-23T10:56:15;6.72;;;4.65;;
46084;SDS011;31823;47.032;8.310;2022-10-23T10:58:50;5.95;;;4.55;;
46084;SDS011;31823;47.032;8.310;2022-10-23T11:01:22;7.10;;;4.63;;
46084;SDS011;31823;47.032;8.310;2022-10-23T11:04:13;6.18;;;4.20;;
46084;SDS011;31823;47.032;8.310;2022-10-23T11:06:42;4.85;;;4.20;;
46084;SDS011;31823;47.032;8.310;2022-10-23T11:09:15;6.05;;;3.83;;
46084;SDS011;31823;47.032;8.310;2022-10-23T11:11:44;4.32;;;3.92;;
46084;SDS011;31823;47.032;8.310;2022-10-23T11:14:17;7.85;;;3.65;;
46084;SDS011;31823;47.032;8.310;2022-10-23T11:16:54;5.55;;;3.65;;
46084;SDS011;31823;47.032;8.310;2022-10-23T11:19:44;4.85;;;3.80;;
46084;SDS011;31823;47.032;8.310;2022-10-23T11:22:34;4.47;;;3.78;;
46084;SDS011;31823;47.032;8.310;2022-10-23T11:38:45;10.95;;;4.30;;
46084;SDS011;31823;47.032;8.310;2022-10-23T11:41:20;10.85;;;4.53;;
46084;SDS011;31823;47.032;8.310;2022-10-23T11:43:51;16.98;;;4.47;;
46084;SDS011;31823;47.032;8.310;2022-10-23T11:48:49;7.88;;;4.35;;
46084;SDS011;31823;47.032;8.310;2022-10-23T11:51:38;11.77;;;3.90;;
46084;SDS011;31823;47.032;8.310;2022-10-23T12:02:20;11.35;;;4.20;;
46084;SDS011;31823;47.032;8.310;2022-10-23T12:04:53;6.88;;;4.40;;
46084;SDS011;31823;47.032;8.310;2022-10-23T12:07:29;13.60;;;4.95;;
46084;SDS011;31823;47.032;8.310;2022-10-23T12:10:02;7.95;;;4.15;;
46084;SDS011;31823;47.032;8.310;2022-10-23T12:12:53;5.07;;;4.25;;
46084;SDS011;31823;47.032;8.310;2022-10-23T12:15:23;4.85;;;3.97;;
46084;SDS011;31823;47.032;8.310;2022-10-23T12:17:50;4.63;;;4.22;;
46084;SDS011;31823;47.032;8.310;2022-10-23T12:23:40;6.13;;;4.93;;
46084;SDS011;31823;47.032;8.310;2022-10-23T12:34:53;8.90;;;5.65;;
46084;SDS011;31823;47.032;8.310;2022-10-23T12:40:31;4.82;;;4.43;;
46084;SDS011;31823;47.032;8.310;2022-10-23T12:42:57;7.20;;;4.30;;
46084;SDS011;31823;47.032;8.310;2022-10-23T12:45:25;5.95;;;4.68;;
46084;SDS011;31823;47.032;8.310;2022-10-23T12:47:54;8.35;;;4.50;;
46084;SDS011;31823;47.032;8.310;2022-10-23T12:50:24;6.45;;;4.47;;
46084;SDS011;31823;47.032;8.310;2022-10-23T12:52:52;4.25;;;3.72;;
46084;SDS011;31823;47.032;8.310;2022-10-23T12:55:19;7.00;;;4.40;;
46084;SDS011;31823;47.032;8.310;2022-10-23T12:57:45;5.10;;;4.20;;
46084;SDS011;31823;47.032;8.310;2022-10-23T13:00:16;5.28;;;4.53;;
46084;SDS011;31823;47.032;8.310;2022-10-23T13:02:43;6.47;;;4.10;;
46084;SDS011;31823;47.032;8.310;2022-10-23T13:05:11;27.38;;;4.97;;
46084;SDS011;31823;47.032;8.310;2022-10-23T13:07:43;13.98;;;4.00;;
46084;SDS011;31823;47.032;8.310;2022-10-23T13:10:14;13.45;;;4.60;;
46084;SDS011;31823;47.032;8.310;2022-10-23T13:12:42;14.02;;;4.75;;
46084;SDS011;31823;47.032;8.310;2022-10-23T13:15:15;13.93;;;3.70;;
46084;SDS011;31823;47.032;8.310;2022-10-23T13:20:24;4.22;;;3.83;;
46084;SDS011;31823;47.032;8.310;2022-10-23T13:23:00;5.35;;;3.70;;
46084;SDS011;31823;47.032;8.310;2022-10-23T13:25:30;4.22;;;3.50;;
46084;SDS011;31823;47.032;8.310;2022-10-23T13:30:33;7.15;;;3.08;;
46084;SDS011;31823;47.032;8.310;2022-10-23T13:33:14;10.48;;;4.10;;
46084;SDS011;31823;47.032;8.310;2022-10-23T13:35:55;7.97;;;4.03;;
46084;SDS011;31823;47.032;8.310;2022-10-23T13:38:31;6.40;;;3.88;;
46084;SDS011;31823;47.032;8.310;2022-10-23T13:41:02;4.28;;;3.88;;
46084;SDS011;31823;47.032;8.310;2022-10-23T13:43:30;8.98;;;3.65;;
46084;SDS011;31823;47.032;8.310;2022-10-23T13:45:57;8.88;;;3.80;;
46084;SDS011;31823;47.032;8.310;2022-10-23T13:48:24;13.65;;;3.10;;
46084;SDS011;31823;47.032;8.310;2022-10-23T13:50:51;9.07;;;3.10;;
46084;SDS011;31823;47.032;8.310;2022-10-23T13:53:17;5.97;;;2.92;;
46084;SDS011;31823;47.032;8.310;2022-10-23T13:55:43;15.68;;;3.63;;
46084;SDS011;31823;47.032;8.310;2022-10-23T13:58:11;7.47;;;3.88;;
46084;SDS011;31823;47.032;8.310;2022-10-23T14:00:37;12.48;;;3.50;;
46084;SDS011;31823;47.032;8.310;2022-10-23T14:03:03;7.25;;;3.53;;
46084;SDS011;31823;47.032;8.310;2022-10-23T14:05:29;13.38;;;4.40;;
46084;SDS011;31823;47.032;8.310;2022-10-23T14:07:55;6.18;;;4.22;;
46084;SDS011;31823;47.032;8.310;2022-10-23T14:10:21;5.22;;;4.10;;
46084;SDS011;31823;47.032;8.310;2022-10-23T14:12:47;6.50;;;3.60;;
46084;SDS011;31823;47.032;8.310;2022-10-23T14:15:17;6.40;;;4.03;;
46084;SDS011;31823;47.032;8.310;2022-10-23T14:17:43;6.72;;;3.95;;
46084;SDS011;31823;47.032;8.310;2022-10-23T14:20:09;10.05;;;4.07;;
46084;SDS011;31823;47.032;8.310;2022-10-23T14:22:35;9.40;;;3.97;;
46084;SDS011;31823;47.032;8.310;2022-10-23T14:25:01;13.60;;;3.60;;
46084;SDS011;31823;47.032;8.310;2022-10-23T14:27:26;9.43;;;4.43;;
46084;SDS011;31823;47.032;8.310;2022-10-23T14:29:53;6.63;;;4.30;;
46084;SDS011;31823;47.032;8.310;2022-10-23T14:32:19;15.68;;;4.20;;
46084;SDS011;31823;47.032;8.310;2022-10-23T14:34:48;14.35;;;4.10;;
46084;SDS011;31823;47.032;8.310;2022-10-23T14:37:15;28.23;;;3.75;;
46084;SDS011;31823;47.032;8.310;2022-10-23T14:39:42;21.35;;;4.20;;
46084;SDS011;31823;47.032;8.310;2022-10-23T14:42:07;21.92;;;4.20;;
46084;SDS011;31823;47.032;8.310;2022-10-23T14:44:33;12.95;;;3.50;;
46084;SDS011;31823;47.032;8.310;2022-10-23T14:46:59;19.88;;;4.45;;
46084;SDS011;31823;47.032;8.310;2022-10-23T14:49:24;17.83;;;4.10;;
46084;SDS011;31823;47.032;8.310;2022-10-23T14:51:50;24.80;;;5.13;;
46084;SDS011;31823;47.032;8.310;2022-10-23T14:54:16;24.25;;;4.13;;
46084;SDS011;31823;47.032;8.310;2022-10-23T14:56:41;12.57;;;3.95;;
46084;SDS011;31823;47.032;8.310;2022-10-23T14:59:07;27.23;;;4.93;;
46084;SDS011;31823;47.032;8.310;2022-10-23T15:01:35;14.77;;;4.03;;
46084;SDS011;31823;47.032;8.310;2022-10-23T15:04:03;22.90;;;4.28;;
46084;SDS011;31823;47.032;8.310;2022-10-23T15:06:29;10.90;;;4.57;;
46084;SDS011;31823;47.032;8.310;2022-10-23T15:08:54;12.73;;;4.82;;
46084;SDS011;31823;47.032;8.310;2022-10-23T15:11:21;17.52;;;5.65;;
46084;SDS011;31823;47.032;8.310;2022-10-23T15:13:47;20.70;;;5.10;;
46084;SDS011;31823;47.032;8.310;2022-10-23T15:16:13;21.95;;;6.25;;
46084;SDS011;31823;47.032;8.310;2022-10-23T15:18:39;11.82;;;6.45;;
46084;SDS011;31823;47.032;8.310;2022-10-23T15:21:05;13.48;;;5.57;;
46084;SDS011;31823;47.032;8.310;2022-10-23T15:23:32;23.85;;;6.82;;
46084;SDS011;31823;47.032;8.310;2022-10-23T15:26:01;23.27;;;5.00;;
46084;SDS011;31823;47.032;8.310;2022-10-23T15:28:29;19.60;;;3.97;;
46084;SDS011;31823;47.032;8.310;2022-10-23T15:30:55;16.88;;;4.57;;
46084;SDS011;31823;47.032;8.310;2022-10-23T15:33:21;15.68;;;4.50;;
46084;SDS011;31823;47.032;8.310;2022-10-23T15:35:47;11.65;;;4.35;;
46084;SDS011;31823;47.032;8.310;2022-10-23T15:38:14;11.18;;;5.60;;
46084;SDS011;31823;47.032;8.310;2022-10-23T15:40:40;11.23;;;4.38;;
46084;SDS011;31823;47.032;8.310;2022-10-23T15:43:06;9.90;;;5.03;;
46084;SDS011;31823;47.032;8.310;2022-10-23T15:45:32;15.18;;;6.15;;
46084;SDS011;31823;47.032;8.310;2022-10-23T15:47:58;15.23;;;5.75;;
46084;SDS011;31823;47.032;8.310;2022-10-23T15:50:23;11.35;;;4.63;;
46084;SDS011;31823;47.032;8.310;2022-10-23T15:52:49;10.80;;;5.40;;
46084;SDS011;31823;47.032;8.310;2022-10-23T15:55:17;22.13;;;5.03;;
46084;SDS011;31823;47.032;8.310;2022-10-23T15:57:43;16.52;;;4.97;;
46084;SDS011;31823;47.032;8.310;2022-10-23T16:00:09;26.02;;;5.40;;
46084;SDS011;31823;47.032;8.310;2022-10-23T16:02:36;38.35;;;5.70;;
46084;SDS011;31823;47.032;8.310;2022-10-23T16:05:02;11.82;;;4.47;;
46084;SDS011;31823;47.032;8.310;2022-10-23T16:07:28;17.05;;;4.43;;
46084;SDS011;31823;47.032;8.310;2022-10-23T16:09:55;38.65;;;5.40;;
46084;SDS011;31823;47.032;8.310;2022-10-23T16:12:21;30.45;;;6.10;;
46084;SDS011;31823;47.032;8.310;2022-10-23T16:14:47;27.85;;;5.57;;
46084;SDS011;31823;47.032;8.310;2022-10-23T16:17:13;18.98;;;4.72;;
46084;SDS011;31823;47.032;8.310;2022-10-23T16:19:39;28.77;;;5.70;;
46084;SDS011;31823;47.032;8.310;2022-10-23T16:22:05;18.55;;;4.10;;
46084;SDS011;31823;47.032;8.310;2022-10-23T16:24:31;17.38;;;4.65;;
46084;SDS011;31823;47.032;8.310;2022-10-23T16:26:58;24.33;;;7.03;;
46084;SDS011;31823;47.032;8.310;2022-10-23T16:29:24;20.23;;;4.70;;
46084;SDS011;31823;47.032;8.310;2022-10-23T16:31:51;28.45;;;6.55;;
46084;SDS011;31823;47.032;8.310;2022-10-23T16:34:18;10.13;;;4.60;;
46084;SDS011;31823;47.032;8.310;2022-10-23T16:36:44;13.82;;;4.45;;
46084;SDS011;31823;47.032;8.310;2022-10-23T16:39:11;19.15;;;4.88;;
46084;SDS011;31823;47.032;8.310;2022-10-23T16:41:37;14.88;;;6.72;;
46084;SDS011;31823;47.032;8.310;2022-10-23T16:44:03;13.90;;;6.32;;
46084;SDS011;31823;47.032;8.310;2022-10-23T16:46:31;20.90;;;6.47;;
46084;SDS011;31823;47.032;8.310;2022-10-23T16:48:58;11.90;;;4.88;;
46084;SDS011;31823;47.032;8.310;2022-10-23T16:51:24;15.18;;;5.25;;
46084;SDS011;31823;47.032;8.310;2022-10-23T16:53:51;35.90;;;6.07;;
46084;SDS011;31823;47.032;8.310;2022-10-23T16:56:18;23.20;;;6.25;;